Time;durP1;ratioP1;P1;durP2;ratioP2;P2;SDS_P1;SDS_P2;PMS_P1;PMS_P2;Temp;Humidity;BMP_temperature;BMP_pressure;BME280_temperature;BME280_humidity;BME280_pressure;Samples;Min_cycle;Max_cycle;Signal;HPM_P1;HPM_P2
2022/08/31 00:05:23;;;;;;;2.22;1.50;;;20.00;99.90;;;;;;5102667;28;20233;-79
2022/08/31 00:07:52;;;;;;;2.38;1.50;;;20.00;99.90;;;;;;5070334;28;20217;-80
2022/08/31 00:10:26;;;;;;;1.85;1.40;;;20.00;99.90;;;;;;5066232;28;20193;-79
2022/08/31 00:12:53;;;;;;;2.80;1.30;;;20.00;99.90;;;;;;5103452;27;20198;-80
2022/08/31 00:15:23;;;;;;;1.75;1.60;;;19.90;99.90;;;;;;5064966;28;20218;-80
2022/08/31 00:17:51;;;;;;;1.70;1.60;;;19.80;99.90;;;;;;5067111;28;20194;-80
2022/08/31 00:20:20;;;;;;;1.63;1.52;;;19.80;99.90;;;;;;5071186;28;20599;-81
2022/08/31 00:22:52;;;;;;;2.05;1.30;;;19.80;99.90;;;;;;5075165;28;20198;-80
2022/08/31 00:25:20;;;;;;;2.17;1.42;;;19.70;99.90;;;;;;5063264;28;20217;-80
2022/08/31 00:27:47;;;;;;;2.55;1.50;;;19.60;99.90;;;;;;5100448;28;20212;-80
2022/08/31 00:30:15;;;;;;;5.32;1.60;;;19.80;99.90;;;;;;5066805;28;20651;-80
2022/08/31 00:32:42;;;;;;;1.48;1.30;;;19.60;99.90;;;;;;5066206;28;20205;-81
2022/08/31 00:35:10;;;;;;;2.65;1.40;;;19.60;99.90;;;;;;5070495;28;20226;-80
2022/08/31 00:37:37;;;;;;;3.70;1.33;;;19.70;99.90;;;;;;5066499;28;20205;-80
2022/08/31 00:40:08;;;;;;;2.45;1.27;;;19.60;99.90;;;;;;5069798;28;20189;-80
2022/08/31 00:42:38;;;;;;;1.40;1.25;;;19.70;99.90;;;;;;5098316;28;20202;-80
2022/08/31 00:45:07;;;;;;;2.50;1.40;;;19.60;99.90;;;;;;5086834;28;20220;-80
2022/08/31 00:47:35;;;;;;;1.48;1.38;;;19.70;99.90;;;;;;5070096;28;20221;-79
2022/08/31 00:50:05;;;;;;;1.92;1.38;;;19.50;99.90;;;;;;5097092;27;20963;-82
2022/08/31 00:52:37;;;;;;;1.20;1.10;;;19.60;99.90;;;;;;5067799;28;20197;-80
2022/08/31 00:55:11;;;;;;;2.38;1.45;;;19.60;99.90;;;;;;5087289;28;20213;-80
2022/08/31 00:57:42;;;;;;;1.42;1.30;;;19.60;99.90;;;;;;5066872;28;20204;-80
2022/08/31 01:00:13;;;;;;;1.38;1.27;;;19.60;99.90;;;;;;5064065;28;20202;-80
2022/08/31 01:02:41;;;;;;;3.05;1.27;;;19.60;99.90;;;;;;5066483;28;20197;-80
2022/08/31 01:05:11;;;;;;;3.55;1.27;;;19.20;99.90;;;;;;5063528;28;20230;-79
2022/08/31 01:07:39;;;;;;;2.30;1.27;;;19.20;99.90;;;;;;5069306;28;20209;-79
2022/08/31 01:10:09;;;;;;;2.17;1.50;;;19.20;99.90;;;;;;5067313;28;20256;-80
2022/08/31 01:12:37;;;;;;;2.80;1.73;;;19.30;99.90;;;;;;5064413;28;20208;-80
2022/08/31 01:15:08;;;;;;;1.33;1.23;;;19.40;99.90;;;;;;5062828;28;20703;-80
2022/08/31 01:17:37;;;;;;;1.50;1.33;;;19.30;99.90;;;;;;5069268;28;20193;-79
2022/08/31 01:20:13;;;;;;;1.73;1.10;;;19.20;99.90;;;;;;5067057;28;20552;-79
2022/08/31 01:22:53;;;;;;;1.65;1.55;;;19.20;99.90;;;;;;5069425;28;20197;-80
2022/08/31 01:25:20;;;;;;;1.55;1.45;;;19.40;99.90;;;;;;5064917;28;20214;-80
2022/08/31 01:27:48;;;;;;;1.63;1.27;;;19.40;99.90;;;;;;5065613;28;20205;-80
2022/08/31 01:30:25;;;;;;;1.58;1.30;;;19.30;99.90;;;;;;5063498;28;20533;-80
2022/08/31 01:32:53;;;;;;;1.95;1.10;;;19.40;99.90;;;;;;5098670;27;20198;-80
2022/08/31 01:35:20;;;;;;;1.52;1.40;;;19.30;99.90;;;;;;5097373;27;20209;-80
2022/08/31 01:37:48;;;;;;;2.63;1.38;;;19.20;99.90;;;;;;5093276;28;20570;-79
2022/08/31 01:40:18;;;;;;;2.58;1.42;;;19.20;99.90;;;;;;5072452;28;20205;-80
2022/08/31 01:42:45;;;;;;;2.55;1.20;;;19.30;99.90;;;;;;5098564;28;20189;-80
2022/08/31 01:45:12;;;;;;;1.75;1.30;;;19.30;99.90;;;;;;5100890;27;20240;-80
2022/08/31 01:47:41;;;;;;;1.55;1.30;;;19.40;99.90;;;;;;5065729;28;20218;-80
2022/08/31 01:50:09;;;;;;;1.58;1.20;;;19.30;99.90;;;;;;5061821;28;20533;-80
2022/08/31 01:52:37;;;;;;;1.88;1.30;;;19.50;99.90;;;;;;5071849;28;20198;-80
2022/08/31 01:55:06;;;;;;;2.08;1.50;;;19.50;99.90;;;;;;5061719;28;20213;-80
2022/08/31 01:57:35;;;;;;;2.05;1.13;;;19.10;99.90;;;;;;5062720;28;20561;-80
2022/08/31 02:00:23;;;;;;;2.28;1.20;;;19.10;99.90;;;;;;5070203;28;20205;-79
2022/08/31 02:02:50;;;;;;;1.98;1.05;;;18.90;99.90;;;;;;5069261;28;20189;-79
2022/08/31 02:05:19;;;;;;;1.33;1.23;;;19.10;99.90;;;;;;5068863;28;20222;-80
2022/08/31 02:07:47;;;;;;;1.33;1.23;;;19.10;99.90;;;;;;5098608;27;20698;-80
2022/08/31 02:10:15;;;;;;;1.85;1.20;;;19.30;99.90;;;;;;5064375;28;20213;-79
2022/08/31 02:12:44;;;;;;;3.10;1.35;;;19.20;99.90;;;;;;5066305;28;20204;-79
2022/08/31 02:15:11;;;;;;;1.52;1.40;;;19.10;99.90;;;;;;5068755;28;20209;-80
2022/08/31 02:17:39;;;;;;;1.83;1.63;;;19.00;99.90;;;;;;5087972;28;20197;-79
2022/08/31 02:20:10;;;;;;;1.48;1.38;;;18.80;99.90;;;;;;5069690;28;20198;-79
2022/08/31 02:22:37;;;;;;;1.83;1.40;;;18.80;99.90;;;;;;5069687;28;20197;-80
2022/08/31 02:25:05;;;;;;;2.05;1.58;;;18.70;99.90;;;;;;5070467;28;20225;-79
2022/08/31 02:27:34;;;;;;;1.95;1.50;;;19.00;99.90;;;;;;5065757;28;20585;-80
2022/08/31 02:30:05;;;;;;;1.30;1.10;;;19.00;99.90;;;;;;5097287;28;20201;-80
2022/08/31 02:32:33;;;;;;;1.35;1.25;;;19.00;99.90;;;;;;5067217;28;20197;-80
2022/08/31 02:35:00;;;;;;;1.67;1.35;;;19.10;99.90;;;;;;5064959;28;20252;-80
2022/08/31 02:37:28;;;;;;;1.42;1.33;;;18.90;99.90;;;;;;5101259;27;20213;-80
2022/08/31 02:39:55;;;;;;;1.40;1.30;;;18.90;99.90;;;;;;5066302;28;20208;-80
2022/08/31 02:42:23;;;;;;;1.98;1.88;;;18.80;99.90;;;;;;5064848;28;20194;-80
2022/08/31 02:44:50;;;;;;;2.10;1.90;;;18.80;99.90;;;;;;5066325;28;20202;-80
2022/08/31 02:47:20;;;;;;;1.60;1.50;;;18.70;99.90;;;;;;5066215;28;20217;-80
2022/08/31 02:50:09;;;;;;;1.30;1.20;;;18.70;99.90;;;;;;5060438;28;20642;-80
2022/08/31 02:52:37;;;;;;;1.30;1.20;;;18.60;99.90;;;;;;5067543;28;20198;-81
2022/08/31 02:55:06;;;;;;;1.95;1.20;;;18.60;99.90;;;;;;5070758;28;20220;-80
2022/08/31 02:57:33;;;;;;;2.45;1.65;;;18.70;99.90;;;;;;5102193;28;20192;-80
2022/08/31 03:00:02;;;;;;;1.60;1.23;;;18.80;99.90;;;;;;5072840;28;20552;-80
2022/08/31 03:02:32;;;;;;;1.58;1.30;;;18.90;99.90;;;;;;5068024;28;20194;-80
2022/08/31 03:05:00;;;;;;;2.70;1.55;;;19.00;99.90;;;;;;5074698;28;20214;-80
2022/08/31 03:07:28;;;;;;;2.10;1.10;;;18.90;99.90;;;;;;5072454;28;20229;-79
2022/08/31 03:09:56;;;;;;;1.60;1.40;;;18.90;99.90;;;;;;5066665;28;20223;-80
2022/08/31 03:12:24;;;;;;;2.58;1.50;;;18.90;99.90;;;;;;5075661;28;20189;-80
2022/08/31 03:14:52;;;;;;;1.85;1.33;;;18.90;99.90;;;;;;5073004;28;20197;-80
2022/08/31 03:17:19;;;;;;;2.13;1.45;;;19.00;99.90;;;;;;5073585;28;20203;-79
2022/08/31 03:19:49;;;;;;;2.70;1.40;;;19.00;99.90;;;;;;5070167;28;20911;-80
2022/08/31 03:22:17;;;;;;;1.80;1.70;;;19.00;99.90;;;;;;5068583;28;20443;-80
2022/08/31 03:24:44;;;;;;;2.55;1.60;;;19.10;99.90;;;;;;5071746;28;20209;-79
2022/08/31 03:27:12;;;;;;;1.95;1.33;;;18.90;99.90;;;;;;5076502;28;20218;-80
2022/08/31 03:29:41;;;;;;;1.58;1.45;;;18.80;99.90;;;;;;5072980;28;20197;-80
2022/08/31 03:32:19;;;;;;;1.90;1.55;;;18.90;99.90;;;;;;5075151;28;20208;-80
2022/08/31 03:34:54;;;;;;;1.70;1.33;;;18.80;99.90;;;;;;5071955;28;20206;-79
2022/08/31 03:37:22;;;;;;;2.15;1.40;;;18.90;99.90;;;;;;5073614;28;20190;-79
2022/08/31 03:39:51;;;;;;;2.85;1.60;;;18.90;99.90;;;;;;5072063;28;20205;-79
2022/08/31 03:42:19;;;;;;;2.20;1.55;;;18.90;99.90;;;;;;5073030;28;20209;-79
2022/08/31 03:44:47;;;;;;;2.03;1.50;;;18.80;99.90;;;;;;5080606;28;20205;-79
2022/08/31 03:47:21;;;;;;;2.70;1.35;;;18.90;99.90;;;;;;5073445;28;20212;-78
2022/08/31 03:49:50;;;;;;;2.03;1.65;;;18.70;99.90;;;;;;5073467;28;20689;-80
2022/08/31 03:52:26;;;;;;;2.83;1.75;;;18.90;99.90;;;;;;5105328;27;20204;-79
2022/08/31 03:55:12;;;;;;;1.63;1.50;;;18.90;99.90;;;;;;5104560;28;20224;-80
2022/08/31 03:57:42;;;;;;;2.30;1.50;;;18.80;99.90;;;;;;5070365;28;20560;-80
2022/08/31 04:00:10;;;;;;;1.67;1.50;;;18.80;99.90;;;;;;5071316;28;20563;-80
2022/08/31 04:02:41;;;;;;;1.50;1.40;;;18.50;99.90;;;;;;5077157;28;20201;-80
2022/08/31 04:05:28;;;;;;;2.28;1.63;;;18.50;99.90;;;;;;5068928;28;20224;-80
2022/08/31 04:08:17;;;;;;;2.20;1.50;;;18.50;99.90;;;;;;5079431;28;20218;-80
2022/08/31 04:10:47;;;;;;;1.58;1.48;;;18.50;99.90;;;;;;5078728;28;20213;-80
2022/08/31 04:13:41;;;;;;;2.75;1.67;;;18.60;99.90;;;;;;5072409;28;20209;-80
2022/08/31 04:16:21;;;;;;;1.60;1.50;;;18.60;99.90;;;;;;5069545;28;20209;-80
2022/08/31 04:19:01;;;;;;;2.13;1.75;;;18.70;99.90;;;;;;5076000;28;20667;-80
2022/08/31 04:21:30;;;;;;;2.17;1.60;;;18.60;99.90;;;;;;5070128;28;20205;-80
2022/08/31 04:24:01;;;;;;;4.28;1.80;;;18.70;99.90;;;;;;5069548;28;20212;-79
2022/08/31 04:26:32;;;;;;;3.35;1.77;;;18.70;99.90;;;;;;5068766;28;20217;-80
2022/08/31 04:29:00;;;;;;;2.85;1.40;;;18.70;99.90;;;;;;5072116;28;20221;-80
2022/08/31 04:31:29;;;;;;;1.70;1.60;;;18.70;99.90;;;;;;5100128;27;20201;-80
2022/08/31 04:33:59;;;;;;;2.50;1.92;;;18.70;99.90;;;;;;5066892;28;20202;-80
2022/08/31 04:36:27;;;;;;;1.80;1.48;;;18.70;99.90;;;;;;5071078;28;20213;-80
2022/08/31 04:38:57;;;;;;;2.00;1.67;;;18.60;99.90;;;;;;5072574;28;20205;-80
2022/08/31 04:41:28;;;;;;;2.53;1.70;;;18.60;99.90;;;;;;5069545;28;20220;-80
2022/08/31 04:43:57;;;;;;;1.92;1.52;;;18.50;99.90;;;;;;5070011;28;20193;-80
2022/08/31 04:46:28;;;;;;;2.35;1.30;;;18.40;99.90;;;;;;5065351;28;20584;-80
2022/08/31 04:48:56;;;;;;;1.42;1.30;;;18.30;99.90;;;;;;5070626;28;20216;-80
2022/08/31 04:51:26;;;;;;;1.58;1.48;;;18.40;99.90;;;;;;5106351;27;20198;-80
2022/08/31 04:53:54;;;;;;;2.97;1.60;;;18.30;99.90;;;;;;5069429;28;20198;-80
2022/08/31 04:56:26;;;;;;;2.30;1.70;;;18.20;99.90;;;;;;5068794;28;20222;-80
2022/08/31 04:58:58;;;;;;;2.03;1.92;;;18.30;99.90;;;;;;5095936;28;20212;-80
2022/08/31 05:01:36;;;;;;;3.72;2.47;;;18.30;99.90;;;;;;5068602;28;20201;-80
2022/08/31 05:04:23;;;;;;;3.03;1.83;;;18.40;99.90;;;;;;5073446;28;20173;-80
2022/08/31 05:06:52;;;;;;;2.47;1.70;;;18.40;99.90;;;;;;5068349;28;20213;-80
2022/08/31 05:09:21;;;;;;;2.55;1.48;;;18.40;99.90;;;;;;5072665;28;20706;-80
2022/08/31 05:11:50;;;;;;;3.88;1.70;;;18.30;99.90;;;;;;5071844;28;20205;-80
2022/08/31 05:14:21;;;;;;;4.13;1.70;;;18.30;99.90;;;;;;5068240;28;20205;-80
2022/08/31 05:16:55;;;;;;;3.17;1.55;;;18.10;99.90;;;;;;5101478;28;20217;-80
2022/08/31 05:19:23;;;;;;;2.75;1.30;;;18.10;99.90;;;;;;5066080;28;20793;-80
2022/08/31 05:21:51;;;;;;;2.85;1.63;;;18.10;99.90;;;;;;5066935;28;20213;-79
2022/08/31 05:24:22;;;;;;;2.50;1.80;;;18.30;99.90;;;;;;5068302;28;20206;-80
2022/08/31 05:26:52;;;;;;;2.72;1.73;;;18.40;99.90;;;;;;5064861;28;20222;-79
2022/08/31 05:29:26;;;;;;;2.85;1.80;;;18.40;99.90;;;;;;5062775;28;20216;-79
2022/08/31 05:32:13;;;;;;;2.97;1.77;;;18.40;99.90;;;;;;5055648;28;20652;-80
2022/08/31 05:34:44;;;;;;;6.80;1.83;;;18.40;99.90;;;;;;5065745;28;20562;-80
2022/08/31 05:37:27;;;;;;;3.00;1.50;;;18.40;99.90;;;;;;5066611;28;20194;-79
2022/08/31 05:39:55;;;;;;;3.10;1.83;;;18.30;99.90;;;;;;5069147;28;20225;-79
2022/08/31 05:42:28;;;;;;;3.33;1.60;;;18.30;99.90;;;;;;5074726;28;20525;-81
2022/08/31 05:45:00;;;;;;;3.05;1.80;;;18.30;99.90;;;;;;5071872;28;20216;-79
2022/08/31 05:47:40;;;;;;;2.72;1.50;;;18.10;99.90;;;;;;5066042;28;20200;-79
2022/08/31 05:50:08;;;;;;;2.92;1.60;;;18.10;99.90;;;;;;5101786;27;20563;-79
2022/08/31 05:52:36;;;;;;;3.58;1.90;;;18.10;99.90;;;;;;5071142;28;20553;-79
2022/08/31 05:55:05;;;;;;;3.03;1.90;;;18.10;99.90;;;;;;5094107;28;20241;-79
2022/08/31 05:57:33;;;;;;;4.45;1.70;;;18.20;99.90;;;;;;5067563;28;20211;-79
2022/08/31 06:00:02;;;;;;;2.83;1.90;;;18.30;99.90;;;;;;5060462;28;20209;-79
2022/08/31 06:02:30;;;;;;;1.83;1.60;;;18.40;99.90;;;;;;5063798;28;20617;-79
2022/08/31 06:04:59;;;;;;;3.00;1.75;;;18.20;99.90;;;;;;5066078;28;20692;-79
2022/08/31 06:07:27;;;;;;;2.22;1.90;;;18.20;99.90;;;;;;5062545;28;20197;-79
2022/08/31 06:09:58;;;;;;;3.72;2.15;;;18.00;99.90;;;;;;5062325;28;20217;-79
2022/08/31 06:12:26;;;;;;;3.75;1.73;;;17.90;99.90;;;;;;5061515;28;20216;-79
2022/08/31 06:14:55;;;;;;;2.65;1.70;;;18.00;99.90;;;;;;5094268;28;20208;-79
2022/08/31 06:17:25;;;;;;;3.30;1.98;;;18.00;99.90;;;;;;5062925;28;20208;-79
2022/08/31 06:19:54;;;;;;;2.65;1.90;;;18.10;99.90;;;;;;5063974;28;20190;-80
2022/08/31 06:22:22;;;;;;;3.50;2.35;;;18.30;99.90;;;;;;5094468;28;20201;-80
2022/08/31 06:24:50;;;;;;;4.50;2.00;;;18.20;99.90;;;;;;5059281;28;20216;-79
2022/08/31 06:27:18;;;;;;;4.78;2.03;;;18.10;99.90;;;;;;5063714;28;20213;-79
2022/08/31 06:29:48;;;;;;;3.45;1.63;;;18.10;99.90;;;;;;5065294;28;20214;-79
2022/08/31 06:32:16;;;;;;;2.33;2.10;;;18.20;99.90;;;;;;5062534;28;20205;-79
2022/08/31 06:34:57;;;;;;;2.38;1.80;;;18.20;99.90;;;;;;5065550;28;20205;-79
2022/08/31 06:37:46;;;;;;;2.22;1.80;;;18.10;99.90;;;;;;5066065;28;20194;-79
2022/08/31 06:40:42;;;;;;;1.90;1.80;;;18.40;99.90;;;;;;5056820;28;20194;-80
2022/08/31 06:43:28;;;;;;;3.22;2.38;;;18.20;99.90;;;;;;5060600;28;20216;-80
2022/08/31 06:45:59;;;;;;;2.75;2.10;;;18.30;99.90;;;;;;5062486;28;20574;-80
2022/08/31 06:48:33;;;;;;;6.47;2.42;;;18.20;99.90;;;;;;5059770;28;20226;-80
2022/08/31 06:51:05;;;;;;;3.58;2.42;;;18.20;99.90;;;;;;5061119;28;20255;-80
2022/08/31 06:53:34;;;;;;;3.22;2.22;;;18.20;99.90;;;;;;5060816;28;20206;-80
2022/08/31 06:56:22;;;;;;;4.13;2.20;;;18.20;99.90;;;;;;5062538;28;20232;-78
2022/08/31 06:59:13;;;;;;;3.50;2.05;;;18.40;99.90;;;;;;5030701;28;20194;-80
2022/08/31 07:02:07;;;;;;;3.53;2.10;;;18.40;99.90;;;;;;5058174;28;20210;-81
2022/08/31 07:04:38;;;;;;;3.53;1.83;;;18.40;99.90;;;;;;5060949;28;20205;-80
2022/08/31 07:07:10;;;;;;;2.30;1.92;;;18.50;99.90;;;;;;5091608;28;20331;-80
2022/08/31 07:09:40;;;;;;;2.60;1.92;;;18.20;99.90;;;;;;5063828;28;20606;-81
2022/08/31 07:12:08;;;;;;;3.42;1.80;;;18.50;99.90;;;;;;5059877;28;20663;-80
2022/08/31 07:14:36;;;;;;;3.63;1.90;;;18.40;99.90;;;;;;5061909;28;20201;-80
2022/08/31 07:17:04;;;;;;;5.40;2.40;;;18.50;99.90;;;;;;5060577;28;20222;-79
2022/08/31 07:19:33;;;;;;;3.05;1.88;;;18.40;99.90;;;;;;5061350;28;20197;-80
2022/08/31 07:22:06;;;;;;;4.35;2.63;;;18.40;99.90;;;;;;5097903;28;20224;-81
2022/08/31 07:24:36;;;;;;;4.28;2.50;;;18.30;99.90;;;;;;5063677;28;20194;-79
2022/08/31 07:27:08;;;;;;;3.20;2.65;;;18.30;99.90;;;;;;5097772;28;20572;-80
2022/08/31 07:29:47;;;;;;;5.32;2.55;;;18.40;99.90;;;;;;5071025;28;20213;-82
2022/08/31 07:32:17;;;;;;;2.67;2.47;;;18.30;99.90;;;;;;5068318;28;20198;-81
2022/08/31 07:34:45;;;;;;;3.85;2.40;;;18.10;99.90;;;;;;5098062;28;20202;-81
2022/08/31 07:43:04;;;;;;;5.80;3.05;;;18.60;99.90;;;;;;5079871;28;20202;-81
2022/08/31 07:45:33;;;;;;;3.78;2.67;;;18.60;99.90;;;;;;5067151;28;20221;-81
2022/08/31 07:48:01;;;;;;;2.17;1.95;;;18.40;99.90;;;;;;5071439;28;20206;-81
2022/08/31 07:50:45;;;;;;;3.28;2.33;;;18.40;99.90;;;;;;5060129;28;20217;-81
2022/08/31 07:53:21;;;;;;;5.25;2.75;;;18.70;99.90;;;;;;5061299;28;20209;-82
2022/08/31 07:56:00;;;;;;;2.50;2.30;;;18.40;99.90;;;;;;5098578;28;20224;-82
2022/08/31 07:58:48;;;;;;;4.57;2.97;;;18.50;99.90;;;;;;5081214;28;20200;-83
2022/08/31 08:01:17;;;;;;;5.13;2.40;;;18.40;99.90;;;;;;5068354;28;20189;-83
2022/08/31 08:03:45;;;;;;;3.47;2.35;;;18.20;99.90;;;;;;5067460;28;20202;-82
2022/08/31 08:06:32;;;;;;;4.28;2.30;;;18.30;99.90;;;;;;5068021;28;20845;-81
2022/08/31 08:09:19;;;;;;;2.70;2.50;;;18.20;99.90;;;;;;5044011;28;20222;-81
2022/08/31 08:12:08;;;;;;;3.83;2.47;;;18.40;99.90;;;;;;5068371;28;20197;-81
2022/08/31 08:14:44;;;;;;;6.15;2.88;;;18.40;99.90;;;;;;5071450;28;20201;-83
2022/08/31 08:17:22;;;;;;;3.25;2.88;;;18.40;99.90;;;;;;5064472;28;20622;-83
2022/08/31 08:20:01;;;;;;;6.05;2.38;;;18.40;99.90;;;;;;5067069;28;20196;-83
2022/08/31 08:22:30;;;;;;;3.63;2.67;;;18.80;99.90;;;;;;5071145;28;20565;-82
2022/08/31 08:25:20;;;;;;;2.58;2.38;;;18.90;99.90;;;;;;5053564;28;20218;-82
2022/08/31 08:28:05;;;;;;;3.50;2.63;;;19.00;99.90;;;;;;5070327;28;20722;-82
2022/08/31 08:30:36;;;;;;;3.03;2.83;;;19.10;99.90;;;;;;5095471;27;20213;-82
2022/08/31 08:33:08;;;;;;;4.25;2.72;;;19.20;99.90;;;;;;5072891;28;20213;-82
2022/08/31 08:35:37;;;;;;;3.90;3.40;;;19.40;99.90;;;;;;5065210;28;20217;-82
2022/08/31 08:38:06;;;;;;;4.90;3.38;;;19.20;99.90;;;;;;5069457;28;20197;-83
2022/08/31 08:40:40;;;;;;;3.47;3.17;;;19.30;99.90;;;;;;5063233;28;20193;-84
2022/08/31 08:43:13;;;;;;;4.32;3.08;;;19.60;99.90;;;;;;5072677;28;20200;-82
2022/08/31 08:45:42;;;;;;;4.35;3.45;;;19.90;99.90;;;;;;5058994;28;20233;-81
2022/08/31 08:48:12;;;;;;;3.72;2.78;;;19.70;99.90;;;;;;5055592;28;20210;-83
2022/08/31 08:50:42;;;;;;;5.70;3.17;;;20.00;99.90;;;;;;5058779;28;20206;-83
2022/08/31 08:53:14;;;;;;;3.25;2.95;;;20.20;99.90;;;;;;5067563;28;20217;-81
2022/08/31 08:55:51;;;;;;;4.40;2.83;;;20.40;99.90;;;;;;5061675;28;20228;-81
2022/08/31 08:58:21;;;;;;;3.00;2.80;;;20.50;99.90;;;;;;5064770;28;20205;-81
2022/08/31 09:00:53;;;;;;;6.30;3.05;;;20.50;99.90;;;;;;5061651;28;20205;-81
2022/08/31 09:03:32;;;;;;;2.80;2.20;;;20.50;99.90;;;;;;5067267;28;20730;-81
2022/08/31 09:06:30;;;;;;;4.35;3.17;;;20.50;99.90;;;;;;5067683;28;20220;-81
2022/08/31 09:09:22;;;;;;;3.65;2.97;;;20.60;99.90;;;;;;5065459;28;20205;-80
2022/08/31 09:12:10;;;;;;;3.60;3.30;;;20.20;99.90;;;;;;5068022;28;20206;-80
2022/08/31 09:14:50;;;;;;;3.88;3.10;;;20.30;99.90;;;;;;5064864;28;20193;-81
2022/08/31 09:17:35;;;;;;;5.13;3.33;;;20.30;99.90;;;;;;5068034;28;20189;-80
2022/08/31 09:20:12;;;;;;;4.32;3.28;;;20.40;99.90;;;;;;5100735;27;20190;-81
2022/08/31 09:22:45;;;;;;;4.65;3.70;;;20.60;99.90;;;;;;5107153;27;20208;-79
2022/08/31 09:25:19;;;;;;;4.43;3.53;;;20.50;99.90;;;;;;5068350;28;20220;-78
2022/08/31 09:28:12;;;;;;;6.07;3.63;;;20.60;99.90;;;;;;5062531;28;20190;-78
2022/08/31 09:30:52;;;;;;;4.40;3.78;;;21.00;99.90;;;;;;5096000;27;20565;-79
2022/08/31 09:33:22;;;;;;;4.50;3.35;;;20.90;99.90;;;;;;5065023;28;20190;-79
2022/08/31 09:35:55;;;;;;;5.68;3.80;;;20.90;99.90;;;;;;5063676;28;20221;-80
2022/08/31 09:38:28;;;;;;;4.53;3.50;;;21.20;99.90;;;;;;5068631;28;20205;-80
2022/08/31 09:41:00;;;;;;;4.95;3.58;;;21.40;99.90;;;;;;5065396;28;20281;-81
2022/08/31 09:43:35;;;;;;;38.05;15.38;;;21.50;99.90;;;;;;5067631;28;20224;-80
2022/08/31 09:46:07;;;;;;;7.45;4.28;;;21.70;99.90;;;;;;5063130;28;20217;-80
2022/08/31 09:48:44;;;;;;;8.02;5.30;;;21.80;99.90;;;;;;5068997;28;20268;-80
2022/08/31 09:51:21;;;;;;;5.80;4.38;;;21.80;99.90;;;;;;5062764;28;20213;-80
2022/08/31 09:56:51;;;;;;;6.80;3.83;;;21.70;99.90;;;;;;5096931;28;20217;-79
2022/08/31 09:59:32;;;;;;;8.88;4.95;;;21.70;99.90;;;;;;5060368;28;20204;-78
2022/08/31 10:02:10;;;;;;;5.03;3.60;;;21.90;99.90;;;;;;5064386;28;20197;-79
2022/08/31 10:04:49;;;;;;;6.22;3.70;;;21.80;99.90;;;;;;5098064;28;20201;-79
2022/08/31 10:07:37;;;;;;;4.53;3.72;;;21.90;99.90;;;;;;5061565;28;20205;-79
2022/08/31 10:10:09;;;;;;;4.93;3.83;;;22.20;99.90;;;;;;5063504;28;20225;-79
2022/08/31 10:12:43;;;;;;;5.95;3.58;;;22.50;99.90;;;;;;5067059;28;20698;-79
2022/08/31 10:15:16;;;;;;;6.13;4.20;;;22.50;99.90;;;;;;5063629;28;20218;-79
2022/08/31 10:17:50;;;;;;;3.95;3.60;;;22.40;99.90;;;;;;5081918;28;20197;-78
2022/08/31 10:20:21;;;;;;;4.85;4.03;;;22.30;99.90;;;;;;5071571;28;20181;-78
2022/08/31 10:22:52;;;;;;;5.05;3.92;;;22.50;99.90;;;;;;5062488;28;20206;-79
2022/08/31 10:25:29;;;;;;;3.78;3.13;;;22.80;99.70;;;;;;5066831;28;20718;-78
2022/08/31 10:28:16;;;;;;;4.35;3.55;;;22.80;99.70;;;;;;5081276;28;20205;-79
2022/08/31 10:30:52;;;;;;;4.78;3.28;;;23.20;99.10;;;;;;5067709;28;20765;-78
2022/08/31 10:35:00;;;;;;;6.85;3.28;;;23.30;98.50;;;;;;5068228;28;20197;-79
2022/08/31 10:36:14;;;;;;;5.13;3.35;;;23.00;98.80;;;;;;5062425;28;20226;-78
2022/08/31 10:38:46;;;;;;;4.38;3.80;;;23.10;98.40;;;;;;5069954;28;20205;-78
2022/08/31 10:41:19;;;;;;;3.60;3.30;;;23.10;98.20;;;;;;5095447;28;20655;-78
2022/08/31 10:43:54;;;;;;;4.63;4.13;;;23.10;98.00;;;;;;5062425;28;20206;-78
2022/08/31 10:46:24;;;;;;;7.00;4.47;;;23.30;97.90;;;;;;5068951;28;20224;-79
2022/08/31 10:48:54;;;;;;;5.15;3.53;;;23.00;97.90;;;;;;5078285;28;20241;-78
2022/08/31 10:51:30;;;;;;;4.55;3.92;;;23.00;98.10;;;;;;5067624;28;20687;-78
2022/08/31 10:54:23;;;;;;;4.40;4.00;;;22.90;98.30;;;;;;5066226;28;20213;-78
2022/08/31 10:57:00;;;;;;;3.75;3.45;;;22.80;99.10;;;;;;5067302;28;20232;-78
2022/08/31 10:59:35;;;;;;;5.95;3.85;;;23.00;99.00;;;;;;5072981;28;20205;-78
2022/08/31 11:02:37;;;;;;;4.85;3.90;;;23.10;98.20;;;;;;5071868;28;20224;-79
2022/08/31 11:05:28;;;;;;;4.13;3.60;;;22.90;98.70;;;;;;5081309;28;20620;-79
2022/08/31 11:08:05;;;;;;;5.20;3.95;;;23.00;98.00;;;;;;5061445;28;20205;-78
2022/08/31 11:10:43;;;;;;;3.88;3.53;;;22.70;98.60;;;;;;5066425;28;20214;-79
2022/08/31 11:13:25;;;;;;;4.88;4.30;;;22.70;98.70;;;;;;5068345;28;20201;-79
2022/08/31 11:16:08;;;;;;;5.60;4.15;;;22.70;98.60;;;;;;5063925;28;20608;-79
2022/08/31 11:19:06;;;;;;;4.07;3.75;;;23.10;97.40;;;;;;5080400;28;20558;-79
2022/08/31 11:22:02;;;;;;;7.30;4.05;;;23.20;96.90;;;;;;5065682;28;20194;-79
2022/08/31 11:25:03;;;;;;;3.83;3.53;;;23.30;96.90;;;;;;5078573;28;20197;-79
2022/08/31 11:27:35;;;;;;;5.22;3.90;;;23.30;96.60;;;;;;5017580;28;20201;-79
2022/08/31 11:30:07;;;;;;;4.07;3.70;;;23.50;96.10;;;;;;5068133;28;20190;-79
2022/08/31 11:32:39;;;;;;;3.75;3.38;;;23.30;96.40;;;;;;5066585;28;20198;-79
2022/08/31 11:35:09;;;;;;;5.28;3.83;;;23.40;96.60;;;;;;5064555;28;20233;-80
2022/08/31 11:37:59;;;;;;;4.32;3.70;;;23.50;96.70;;;;;;5072852;28;20663;-79
2022/08/31 11:40:57;;;;;;;4.75;3.80;;;23.60;96.40;;;;;;5069085;28;20201;-78
2022/08/31 11:43:55;;;;;;;4.55;4.15;;;23.70;96.00;;;;;;5071473;28;20205;-79
2022/08/31 11:46:49;;;;;;;5.55;4.20;;;24.00;95.20;;;;;;4983908;28;20697;-79
2022/08/31 11:49:43;;;;;;;7.78;4.20;;;24.10;94.60;;;;;;5047513;28;20207;-80
2022/08/31 11:52:28;;;;;;;5.80;3.75;;;23.80;95.10;;;;;;5097707;27;20225;-78
2022/08/31 11:55:09;;;;;;;5.40;4.35;;;23.80;95.40;;;;;;5066729;28;20204;-79
2022/08/31 11:58:10;;;;;;;3.90;3.60;;;24.00;95.30;;;;;;5072877;28;20197;-78
2022/08/31 12:00:43;;;;;;;4.95;3.90;;;24.10;94.60;;;;;;5063809;28;20197;-79
2022/08/31 12:03:39;;;;;;;3.95;3.47;;;24.20;94.60;;;;;;5062765;28;20205;-82
2022/08/31 12:06:10;;;;;;;6.53;3.35;;;24.30;94.20;;;;;;5065716;28;20218;-79
2022/08/31 12:08:50;;;;;;;4.38;3.85;;;24.70;93.60;;;;;;5060692;28;20595;-78
2022/08/31 12:11:36;;;;;;;5.43;3.45;;;24.50;92.90;;;;;;5069847;28;20213;-79
2022/08/31 12:14:19;;;;;;;5.15;3.58;;;24.80;92.80;;;;;;5080623;28;20208;-80
2022/08/31 12:16:57;;;;;;;3.67;3.38;;;24.70;92.70;;;;;;5072016;28;20217;-79
2022/08/31 12:19:59;;;;;;;3.95;3.22;;;24.90;92.60;;;;;;5095992;28;20202;-79
2022/08/31 12:25:45;;;;;;;3.90;3.50;;;24.60;91.80;;;;;;5078346;28;20210;-80
2022/08/31 12:28:24;;;;;;;3.72;3.42;;;24.50;92.10;;;;;;5086026;28;20203;-79
2022/08/31 12:30:53;;;;;;;4.78;3.35;;;24.80;91.90;;;;;;5072004;28;20216;-79
2022/08/31 12:33:25;;;;;;;3.20;2.90;;;25.10;91.20;;;;;;5104648;27;20710;-80
2022/08/31 12:35:55;;;;;;;2.80;2.60;;;25.70;90.20;;;;;;5068454;28;20218;-79
2022/08/31 12:38:25;;;;;;;3.25;2.78;;;25.70;88.80;;;;;;5066382;28;20212;-79
2022/08/31 12:40:54;;;;;;;4.30;3.05;;;25.10;90.00;;;;;;5104931;28;20212;-80
2022/08/31 12:43:26;;;;;;;3.88;3.17;;;24.90;90.10;;;;;;5070804;28;20202;-79
2022/08/31 12:46:31;;;;;;;3.60;3.20;;;25.10;90.70;;;;;;5070488;28;20225;-79
2022/08/31 12:49:36;;;;;;;3.80;3.50;;;24.80;90.90;;;;;;5067239;28;20205;-80
2022/08/31 12:52:14;;;;;;;3.38;3.08;;;24.70;91.00;;;;;;5068629;28;20217;-80
2022/08/31 12:55:02;;;;;;;5.00;2.88;;;24.60;90.70;;;;;;5103714;27;20200;-79
2022/08/31 12:57:43;;;;;;;3.72;2.88;;;24.60;90.70;;;;;;5060745;28;20206;-79
2022/08/31 13:00:25;;;;;;;3.40;2.85;;;24.90;90.20;;;;;;5075116;28;20190;-79
2022/08/31 13:02:55;;;;;;;3.08;2.78;;;25.00;89.50;;;;;;5104144;27;20198;-79
2022/08/31 13:05:25;;;;;;;4.10;2.70;;;25.30;88.90;;;;;;5073555;28;20213;-79
2022/08/31 13:07:54;;;;;;;3.17;2.90;;;25.90;87.50;;;;;;5070219;28;20667;-79
2022/08/31 13:10:29;;;;;;;4.32;3.10;;;26.10;84.70;;;;;;5069370;28;20198;-80
2022/08/31 13:13:00;;;;;;;3.10;2.53;;;25.90;85.60;;;;;;5068634;28;20244;-79
2022/08/31 13:15:33;;;;;;;4.05;2.85;;;26.40;84.50;;;;;;5066388;28;20222;-80
2022/08/31 13:18:02;;;;;;;5.35;2.50;;;26.50;82.20;;;;;;5069201;28;20202;-80
2022/08/31 13:20:34;;;;;;;2.78;2.58;;;26.70;80.90;;;;;;5063015;28;20204;-81
2022/08/31 13:23:02;;;;;;;3.15;2.85;;;27.10;79.10;;;;;;5072760;28;20197;-80
2022/08/31 13:25:35;;;;;;;4.00;2.42;;;27.40;76.20;;;;;;5070494;28;20222;-81
2022/08/31 13:28:18;;;;;;;4.78;3.00;;;27.50;74.50;;;;;;5099966;28;20202;-81
2022/08/31 13:30:56;;;;;;;3.38;2.90;;;26.70;75.80;;;;;;5062139;28;20753;-81
2022/08/31 13:33:30;;;;;;;3.78;2.80;;;26.60;77.70;;;;;;5065490;28;20221;-81
2022/08/31 13:36:03;;;;;;;3.22;2.63;;;26.50;76.30;;;;;;5063273;28;20596;-80
2022/08/31 13:38:41;;;;;;;3.42;2.92;;;26.80;74.80;;;;;;5063630;28;20190;-82
2022/08/31 13:41:17;;;;;;;3.05;2.63;;;27.00;73.90;;;;;;5069755;28;20201;-82